Time;durP1;ratioP1;P1;durP2;ratioP2;P2;SDS_P1;SDS_P2;PMS_P1;PMS_P2;Temp;Humidity;BMP_temperature;BMP_pressure;BME280_temperature;BME280_humidity;BME280_pressure;Samples;Min_cycle;Max_cycle;Signal;HPM_P1;HPM_P2
2024/01/04 00:01:11;;;;;;;7.53;3.15;;;;;;;10.67;61.58;98439.78;4445534;32;20188;-73
2024/01/04 00:03:46;;;;;;;7.90;3.00;;;;;;;10.74;61.31;98438.25;4451865;32;20160;-73
2024/01/04 00:06:17;;;;;;;6.72;3.40;;;;;;;10.62;61.86;98438.56;4452564;32;20151;-73
2024/01/04 00:08:46;;;;;;;9.15;4.28;;;;;;;10.54;61.75;98445.38;4451965;32;20155;-73
2024/01/04 00:11:19;;;;;;;11.35;4.47;;;;;;;10.83;60.73;98442.66;4445629;32;20451;-73
2024/01/04 00:13:50;;;;;;;14.55;7.18;;;;;;;10.76;61.06;98448.69;4451915;32;20156;-73
2024/01/04 00:16:19;;;;;;;11.00;7.53;;;;;;;10.68;61.08;98451.22;4452083;32;20175;-73
2024/01/04 00:18:48;;;;;;;7.68;4.62;;;;;;;10.39;61.83;98432.72;4451942;32;20455;-73
2024/01/04 00:21:21;;;;;;;11.07;4.57;;;;;;;10.48;61.71;98438.00;4445990;32;20199;-73
2024/01/04 00:23:50;;;;;;;5.40;3.62;;;;;;;10.41;61.89;98444.81;4451681;32;20180;-73
2024/01/04 00:26:20;;;;;;;10.63;3.97;;;;;;;10.48;61.73;98438.00;4451770;32;20187;-73
2024/01/04 00:28:52;;;;;;;8.35;4.70;;;;;;;10.28;62.48;98441.62;4451734;32;20151;-73
2024/01/04 00:31:25;;;;;;;7.78;4.68;;;;;;;10.32;62.21;98450.97;4445378;32;20183;-73
2024/01/04 00:33:54;;;;;;;6.53;5.35;;;;;;;9.99;63.54;98436.31;4451711;32;20167;-73
2024/01/04 00:36:23;;;;;;;8.50;4.25;;;;;;;10.19;63.00;98445.09;4451903;32;20124;-72
2024/01/04 00:38:55;;;;;;;7.62;3.22;;;;;;;10.27;62.78;98446.09;4452052;32;20186;-73
2024/01/04 00:41:25;;;;;;;8.93;3.50;;;;;;;10.13;63.22;98450.94;4445350;32;20155;-73
2024/01/04 00:43:55;;;;;;;6.47;3.65;;;;;;;10.23;62.89;98438.56;4451781;32;20171;-73
2024/01/04 00:46:25;;;;;;;8.27;4.05;;;;;;;10.34;62.56;98441.09;4451760;32;20507;-73
2024/01/04 00:48:54;;;;;;;10.80;3.60;;;;;;;10.49;61.96;98445.00;4451879;32;20161;-73
2024/01/04 00:51:23;;;;;;;7.43;3.25;;;;;;;10.73;61.27;98446.31;4445284;32;20152;-73
2024/01/04 00:53:53;;;;;;;4.95;3.67;;;;;;;10.67;61.38;98442.44;4452055;32;20155;-73
2024/01/04 00:56:22;;;;;;;5.80;3.40;;;;;;;10.43;62.22;98436.75;4451557;32;20163;-73
2024/01/04 00:58:50;;;;;;;7.25;3.50;;;;;;;10.69;61.54;98429.03;4451627;32;20547;-73
2024/01/04 01:01:26;;;;;;;5.75;3.30;;;;;;;10.36;62.31;98436.47;4445021;32;20168;-73
2024/01/04 01:03:55;;;;;;;6.15;3.40;;;;;;;10.27;62.58;98438.16;4451615;32;20164;-73
2024/01/04 01:06:24;;;;;;;6.05;4.25;;;;;;;10.29;62.88;98425.63;4445158;32;20195;-72
2024/01/04 01:08:53;;;;;;;6.65;3.75;;;;;;;10.49;62.33;98428.25;4452125;32;20160;-73
2024/01/04 01:11:24;;;;;;;7.40;3.22;;;;;;;10.50;62.10;98440.53;4444326;32;20159;-73
2024/01/04 01:13:53;;;;;;;6.90;4.10;;;;;;;11.07;60.25;98433.41;4451477;32;20160;-73
2024/01/04 01:16:21;;;;;;;7.75;3.60;;;;;;;10.41;61.90;98420.16;4451485;32;20152;-73
2024/01/04 01:18:52;;;;;;;8.90;4.45;;;;;;;10.30;62.71;98408.78;4451391;32;20153;-73
2024/01/04 01:21:23;;;;;;;10.18;5.07;;;;;;;10.65;61.53;98402.03;4445450;32;20187;-73
2024/01/04 01:23:52;;;;;;;8.23;4.03;;;;;;;10.96;60.58;98402.59;4451043;32;20524;-73
2024/01/04 01:26:22;;;;;;;7.07;4.15;;;;;;;10.30;62.00;98384.94;4451388;32;20465;-73
2024/01/04 01:28:52;;;;;;;9.40;4.60;;;;;;;10.48;61.69;98392.16;4451450;32;20174;-73
2024/01/04 01:31:29;;;;;;;8.00;3.40;;;;;;;10.14;62.78;98387.31;4445124;32;20183;-73
2024/01/04 01:33:59;;;;;;;7.40;4.95;;;;;;;10.33;62.43;98389.09;4451523;32;20187;-73
2024/01/04 01:36:28;;;;;;;11.12;4.40;;;;;;;10.47;62.00;98404.56;4451324;32;20179;-72
2024/01/04 01:38:58;;;;;;;4.37;2.95;;;;;;;10.61;61.32;98405.91;4451606;32;20156;-73
2024/01/04 01:41:27;;;;;;;6.30;3.53;;;;;;;10.47;61.67;98396.62;4445146;32;20159;-73
2024/01/04 01:43:57;;;;;;;11.05;3.75;;;;;;;10.31;62.22;98393.72;4451344;32;20465;-73
2024/01/04 01:46:29;;;;;;;7.07;4.18;;;;;;;10.38;61.98;98400.13;4451435;32;20184;-73
2024/01/04 01:48:59;;;;;;;7.63;4.70;;;;;;;10.47;61.65;98415.16;4451379;32;20151;-73
2024/01/04 01:51:29;;;;;;;6.70;4.18;;;;;;;10.40;61.80;98416.69;4445089;32;20167;-73
2024/01/04 01:53:58;;;;;;;14.38;4.00;;;;;;;10.40;61.75;98421.16;4451685;32;20704;-73
2024/01/04 01:56:27;;;;;;;6.57;3.50;;;;;;;10.47;61.57;98414.31;4451231;32;20156;-73
2024/01/04 01:58:57;;;;;;;9.40;4.93;;;;;;;10.21;62.37;98422.78;4451236;32;20160;-73
2024/01/04 02:01:30;;;;;;;6.80;3.40;;;;;;;10.50;61.22;98422.81;4444773;32;20153;-73
2024/01/04 02:04:00;;;;;;;;;;;;;;;10.22;61.75;98419.19;4451945;32;20590;-73
2024/01/04 02:06:29;;;;;;;7.93;4.57;;;;;;;10.36;61.28;98417.13;4451150;32;20024;-72
2024/01/04 02:09:04;;;;;;;5.90;3.87;;;;;;;9.95;62.43;98409.31;4451644;32;20175;-73
2024/01/04 02:11:33;;;;;;;7.00;3.45;;;;;;;9.99;62.54;98409.88;4444815;32;20171;-73
2024/01/04 02:14:03;;;;;;;7.28;3.60;;;;;;;10.05;62.26;98410.13;4451054;32;20152;-73
2024/01/04 02:16:38;;;;;;;7.78;3.53;;;;;;;9.96;62.58;98408.31;4451486;32;20161;-73
2024/01/04 02:19:15;;;;;;;8.95;3.33;;;;;;;9.93;62.62;98410.41;4453813;32;20152;-73
2024/01/04 02:21:46;;;;;;;12.25;4.85;;;;;;;9.89;62.88;98407.19;4448074;32;20155;-73
2024/01/04 02:24:16;;;;;;;7.10;3.78;;;;;;;9.58;64.05;98415.25;4455285;32;20152;-73
2024/01/04 02:26:46;;;;;;;7.37;3.75;;;;;;;9.54;64.35;98427.06;4454998;32;20156;-74
2024/01/04 02:29:16;;;;;;;6.00;3.67;;;;;;;9.75;63.58;98423.50;4454521;32;20179;-73
2024/01/04 02:31:48;;;;;;;6.87;4.10;;;;;;;9.88;63.02;98415.28;4448016;32;20152;-73
2024/01/04 02:34:17;;;;;;;;;;;;;;;9.80;63.01;98386.88;4453589;32;20164;-73
2024/01/04 02:36:46;;;;;;;8.32;4.03;;;;;;;10.08;62.24;98387.84;4450916;32;20039;-73
2024/01/04 02:39:16;;;;;;;15.60;4.80;;;;;;;10.26;61.58;98402.09;4451559;32;20159;-73
2024/01/04 02:41:47;;;;;;;9.10;3.78;;;;;;;9.76;63.07;98404.81;4444528;32;20160;-73
2024/01/04 02:44:17;;;;;;;7.45;3.78;;;;;;;9.78;63.07;98413.47;4450857;32;20160;-73
2024/01/04 02:46:49;;;;;;;9.48;3.90;;;;;;;9.63;63.52;98424.59;4451335;32;20151;-73
2024/01/04 02:49:19;;;;;;;9.15;4.97;;;;;;;9.50;63.85;98430.97;4450733;32;20156;-73
2024/01/04 02:51:50;;;;;;;8.32;4.00;;;;;;;9.60;63.53;98425.69;4445368;32;20148;-72
2024/01/04 02:54:22;;;;;;;13.13;4.68;;;;;;;9.70;62.97;98415.09;4451400;32;20128;-73
2024/01/04 02:56:57;;;;;;;7.60;4.40;;;;;;;9.70;62.68;98431.84;4450657;32;20190;-73
2024/01/04 02:59:26;;;;;;;7.50;4.05;;;;;;;9.50;63.22;98436.25;4450811;32;20164;-73
2024/01/04 03:01:55;;;;;;;7.75;3.60;;;;;;;9.65;62.93;98441.13;4444253;32;20164;-73
2024/01/04 03:04:29;;;;;;;10.02;4.20;;;;;;;9.57;62.91;98429.41;4450464;32;20156;-73
2024/01/04 03:06:58;;;;;;;8.05;3.92;;;;;;;9.51;63.07;98429.97;4450439;32;20140;-72
2024/01/04 03:09:29;;;;;;;9.00;4.35;;;;;;;9.55;62.82;98433.19;4450660;32;20168;-72
2024/01/04 03:11:58;;;;;;;12.93;4.53;;;;;;;9.38;63.61;98418.78;4444550;32;20167;-73
2024/01/04 03:14:29;;;;;;;6.28;4.18;;;;;;;9.45;63.22;98424.38;4450413;32;20160;-74
2024/01/04 03:17:02;;;;;;;7.28;4.30;;;;;;;9.35;63.44;98427.84;4450412;32;20176;-73
2024/01/04 03:19:32;;;;;;;8.88;4.32;;;;;;;9.38;63.36;98423.25;4448920;32;20198;-73
2024/01/04 03:22:01;;;;;;;6.75;4.37;;;;;;;9.68;62.44;98417.06;4444224;32;20160;-72
2024/01/04 03:24:32;;;;;;;6.28;4.12;;;;;;;9.75;62.28;98415.56;4450277;32;20176;-72
2024/01/04 03:27:01;;;;;;;6.82;4.72;;;;;;;9.37;63.20;98419.78;4450541;32;20144;-73
2024/01/04 03:29:30;;;;;;;6.82;4.15;;;;;;;9.69;62.52;98411.62;4450412;32;20147;-73
2024/01/04 03:32:05;;;;;;;9.75;5.35;;;;;;;9.38;63.53;98413.50;4443765;32;20172;-73
2024/01/04 03:34:34;;;;;;;9.90;4.72;;;;;;;9.31;63.88;98402.66;4453755;32;20147;-72
2024/01/04 03:37:04;;;;;;;7.43;4.30;;;;;;;9.23;64.10;98413.06;4453648;32;20172;-73
2024/01/04 03:39:35;;;;;;;8.18;4.55;;;;;;;9.10;64.54;98412.44;4452177;32;20182;-72
2024/01/04 03:42:04;;;;;;;10.10;5.32;;;;;;;9.35;64.06;98406.69;4446252;32;20148;-73
2024/01/04 03:44:34;;;;;;;5.93;4.20;;;;;;;8.75;66.32;98412.84;4452194;32;20162;-73
2024/01/04 03:47:06;;;;;;;8.75;5.15;;;;;;;8.98;65.85;98414.34;4452142;32;20190;-73
2024/01/04 03:49:35;;;;;;;8.13;4.32;;;;;;;8.94;66.21;98406.81;4452126;32;20543;-73
2024/01/04 03:52:05;;;;;;;10.88;4.60;;;;;;;9.24;65.34;98393.59;4445826;32;20161;-73
2024/01/04 03:54:36;;;;;;;8.65;4.28;;;;;;;9.46;64.48;98391.69;4452724;32;20591;-73
2024/01/04 03:57:05;;;;;;;9.90;3.67;;;;;;;9.39;64.21;98399.34;4452423;32;20183;-73
2024/01/04 03:59:37;;;;;;;7.43;5.35;;;;;;;9.42;64.44;98385.81;4454043;32;20454;-74
2024/01/04 04:02:10;;;;;;;9.45;5.03;;;;;;;9.35;64.34;98376.78;4449002;32;20165;-73
2024/01/04 04:04:40;;;;;;;10.30;4.80;;;;;;;9.39;64.60;98377.37;4455101;32;20442;-73
2024/01/04 04:07:10;;;;;;;8.73;4.28;;;;;;;9.11;65.35;98380.63;4455790;32;20164;-72
2024/01/04 04:09:41;;;;;;;6.20;3.90;;;;;;;9.01;65.95;98386.84;4455236;32;20147;-73
2024/01/04 04:12:10;;;;;;;6.87;3.87;;;;;;;9.44;64.55;98386.53;4448433;32;20175;-73
2024/01/04 04:14:41;;;;;;;9.30;4.12;;;;;;;9.15;65.24;98401.50;4452052;32;20148;-73
2024/01/04 04:17:17;;;;;;;8.30;4.45;;;;;;;8.94;66.24;98412.94;4452059;32;20159;-73
2024/01/04 04:19:47;;;;;;;9.30;4.07;;;;;;;8.91;66.46;98405.28;4451925;32;20159;-72
2024/01/04 04:22:16;;;;;;;8.40;4.90;;;;;;;8.94;66.41;98415.56;4445596;32;20172;-73
2024/01/04 04:24:47;;;;;;;7.00;4.65;;;;;;;8.80;66.87;98415.94;4451880;32;20164;-72
2024/01/04 04:27:16;;;;;;;8.88;5.22;;;;;;;9.02;66.33;98417.56;4452300;32;20156;-73
2024/01/04 04:29:46;;;;;;;7.75;5.07;;;;;;;8.96;66.32;98424.22;4452691;32;20155;-73
2024/01/04 04:32:18;;;;;;;10.23;4.90;;;;;;;8.92;66.47;98436.03;4447651;32;20172;-73
2024/01/04 04:34:48;;;;;;;;;;;;;;;8.55;67.48;98427.72;4453738;32;20167;-73
2024/01/04 04:37:17;;;;;;;10.25;5.95;;;;;;;8.81;66.75;98433.44;4452724;32;20036;-73
2024/01/04 04:39:48;;;;;;;8.07;4.62;;;;;;;8.97;66.39;98439.09;4451719;32;20140;-73
2024/01/04 04:42:17;;;;;;;7.28;5.35;;;;;;;9.15;65.67;98430.56;4445954;32;20187;-73
2024/01/04 04:44:47;;;;;;;9.50;6.12;;;;;;;9.09;65.55;98429.28;4451919;32;20182;-73
2024/01/04 04:47:16;;;;;;;9.20;4.78;;;;;;;9.07;65.73;98428.59;4451736;32;20168;-73
2024/01/04 04:49:48;;;;;;;5.70;4.35;;;;;;;9.02;65.84;98431.59;4451711;32;20149;-73
2024/01/04 04:52:18;;;;;;;10.05;4.30;;;;;;;9.17;65.37;98424.16;4445338;32;20533;-73
2024/01/04 04:54:49;;;;;;;6.15;5.07;;;;;;;8.92;65.87;98421.97;4451716;32;20156;-73
2024/01/04 04:57:18;;;;;;;8.27;4.57;;;;;;;8.86;66.06;98418.88;4452076;32;20571;-73
2024/01/04 04:59:47;;;;;;;13.00;5.93;;;;;;;9.19;65.02;98411.66;4451750;32;20172;-74
2024/01/04 05:02:16;;;;;;;8.30;4.70;;;;;;;9.03;65.38;98416.63;4445147;32;20191;-73
2024/01/04 05:04:49;;;;;;;;;;;;;;;9.11;65.05;98412.31;4451888;32;20529;-73
2024/01/04 05:07:18;;;;;;;8.57;5.35;;;;;;;9.17;64.90;98412.75;4451752;32;20052;-73
2024/01/04 05:09:47;;;;;;;13.15;8.52;;;;;;;9.14;64.71;98405.91;4451624;32;20156;-73
2024/01/04 05:12:17;;;;;;;7.95;5.75;;;;;;;9.09;64.99;98403.69;4445644;32;20446;-73
2024/01/04 05:14:47;;;;;;;6.70;4.65;;;;;;;8.92;65.36;98408.78;4451841;32;20192;-73
2024/01/04 05:17:16;;;;;;;8.73;4.40;;;;;;;9.11;64.90;98408.84;4452458;32;20180;-74
2024/01/04 05:19:48;;;;;;;8.30;5.12;;;;;;;8.85;65.66;98416.37;4451963;32;20156;-73
2024/01/04 05:22:21;;;;;;;6.15;4.72;;;;;;;8.85;65.72;98416.37;4449898;32;20635;-73
2024/01/04 05:24:50;;;;;;;11.48;5.37;;;;;;;8.98;65.06;98414.34;4451359;32;20171;-73
2024/01/04 05:27:23;;;;;;;9.48;4.75;;;;;;;8.80;65.94;98422.06;4451757;32;20167;-73
2024/01/04 05:29:53;;;;;;;11.65;4.68;;;;;;;8.71;66.11;98416.72;4451298;32;20156;-73
2024/01/04 05:32:31;;;;;;;8.52;4.05;;;;;;;8.55;67.11;98420.69;4448411;32;20171;-73
2024/01/04 05:35:00;;;;;;;8.68;5.32;;;;;;;8.68;66.88;98428.38;4455016;32;20171;-73
2024/01/04 05:37:30;;;;;;;10.88;6.00;;;;;;;8.82;66.50;98430.66;4452730;32;20160;-73
2024/01/04 05:39:59;;;;;;;8.38;4.30;;;;;;;8.78;66.61;98439.81;4451292;32;20210;-72
2024/01/04 05:42:31;;;;;;;5.78;3.05;;;;;;;8.81;66.24;98444.03;4445361;32;20151;-73
2024/01/04 05:45:00;;;;;;;7.87;3.87;;;;;;;8.69;66.11;98440.63;4451878;32;20139;-73
2024/01/04 05:47:31;;;;;;;5.80;3.65;;;;;;;8.91;65.38;98439.63;4451171;32;20180;-74
2024/01/04 05:50:01;;;;;;;6.40;3.65;;;;;;;8.99;65.07;98447.75;4450590;32;20175;-73
2024/01/04 05:52:30;;;;;;;8.68;4.65;;;;;;;9.22;64.29;98458.09;4445124;32;20532;-73
2024/01/04 05:55:00;;;;;;;7.43;4.57;;;;;;;9.06;64.77;98462.06;4451524;32;20155;-72
2024/01/04 05:57:29;;;;;;;15.85;7.37;;;;;;;9.09;64.87;98453.87;4449244;32;20191;-72
2024/01/04 05:59:59;;;;;;;11.50;5.87;;;;;;;9.03;65.05;98454.44;4451622;32;20160;-73
2024/01/04 06:02:32;;;;;;;9.18;4.72;;;;;;;8.82;65.75;98456.25;4451229;32;20175;-73
2024/01/04 06:05:02;;;;;;;9.85;4.93;;;;;;;8.82;65.69;98462.37;4451049;32;20187;-73
2024/01/04 06:07:31;;;;;;;5.32;3.72;;;;;;;8.64;66.20;98458.66;4451303;32;20171;-73
2024/01/04 06:10:00;;;;;;;9.10;4.35;;;;;;;8.89;65.05;98461.84;4450719;32;20164;-72
2024/01/04 06:12:29;;;;;;;10.38;4.00;;;;;;;8.85;65.24;98466.56;4445263;32;20132;-72
2024/01/04 06:14:59;;;;;;;7.62;3.85;;;;;;;8.74;65.60;98467.47;4451677;32;20148;-73
2024/01/04 06:17:28;;;;;;;10.57;4.50;;;;;;;8.86;65.43;98458.50;4451021;32;20155;-73
2024/01/04 06:20:01;;;;;;;;;;;;;;;8.88;65.21;98461.03;4450892;32;20152;-72
2024/01/04 06:22:30;;;;;;;6.53;3.70;;;;;;;8.83;65.36;98464.06;4428667;32;20043;-73
2024/01/04 06:25:00;;;;;;;13.57;4.47;;;;;;;8.90;64.99;98466.16;4448441;32;20152;-73
2024/01/04 06:27:29;;;;;;;6.85;3.97;;;;;;;8.72;65.06;98471.22;4450863;32;20168;-73
2024/01/04 06:30:00;;;;;;;7.65;3.92;;;;;;;8.85;64.68;98472.69;4451195;32;20147;-73
2024/01/04 06:32:29;;;;;;;6.03;3.50;;;;;;;8.74;64.54;98464.81;4445117;32;20152;-73
2024/01/04 06:35:01;;;;;;;11.27;3.53;;;;;;;9.23;62.43;98468.56;4450856;32;20176;-73
2024/01/04 06:37:31;;;;;;;6.18;3.62;;;;;;;9.22;61.70;98460.75;4450851;32;20171;-74
2024/01/04 06:40:00;;;;;;;9.45;3.75;;;;;;;8.97;62.23;98467.31;4450594;32;20159;-72
2024/01/04 06:42:29;;;;;;;5.82;3.20;;;;;;;8.98;61.92;98474.28;4444876;32;20723;-73
2024/01/04 06:44:59;;;;;;;7.20;3.28;;;;;;;9.17;61.48;98482.28;4451140;32;20140;-73
2024/01/04 06:47:29;;;;;;;7.55;3.28;;;;;;;9.05;61.53;98488.62;4450564;32;20171;-73
2024/01/04 06:49:58;;;;;;;5.97;3.15;;;;;;;9.14;61.32;98487.84;4450671;32;20184;-73
2024/01/04 06:52:43;;;;;;;9.90;7.30;;;;;;;9.49;60.28;98486.59;4450556;32;20513;-73
2024/01/04 06:55:13;;;;;;;14.05;9.00;;;;;;;9.62;60.04;98495.12;4450342;32;20519;-73
2024/01/04 06:57:42;;;;;;;20.35;12.60;;;;;;;9.72;59.74;98498.66;4450365;32;20153;-73
2024/01/04 07:00:15;;;;;;;23.50;12.05;;;;;;;9.81;59.53;98500.47;4449165;32;20155;-73
2024/01/04 07:02:44;;;;;;;31.77;16.77;;;;;;;9.74;59.76;98503.78;4446022;32;20175;-73
2024/01/04 07:05:14;;;;;;;23.40;13.55;;;;;;;9.75;59.72;98492.25;4450183;32;20150;-73
2024/01/04 07:07:45;;;;;;;23.12;13.05;;;;;;;9.80;59.58;98504.09;4450722;32;20160;-73
2024/01/04 07:10:14;;;;;;;14.05;7.78;;;;;;;9.82;59.44;98503.97;4450467;32;20203;-73
2024/01/04 07:12:44;;;;;;;15.82;8.55;;;;;;;9.69;59.79;98508.66;4448115;32;20223;-73
2024/01/04 07:15:14;;;;;;;11.73;9.27;;;;;;;9.57;60.10;98508.75;4451483;32;20540;-73
2024/01/04 07:17:45;;;;;;;15.48;9.63;;;;;;;9.54;60.23;98514.34;4452522;32;20163;-73
2024/01/04 07:20:15;;;;;;;14.45;7.62;;;;;;;9.42;60.80;98509.25;4450486;32;20169;-73
2024/01/04 07:22:44;;;;;;;14.25;6.65;;;;;;;9.30;61.29;98508.50;4447979;32;20163;-73
2024/01/04 07:25:14;;;;;;;13.95;6.90;;;;;;;9.36;61.10;98508.81;4452318;32;20163;-73
2024/01/04 07:27:43;;;;;;;9.43;7.15;;;;;;;9.40;61.20;98508.56;4452269;32;24869;-73
2024/01/04 07:30:18;;;;;;;16.02;8.88;;;;;;;9.39;61.06;98502.44;4450532;32;20187;-73
2024/01/04 07:32:47;;;;;;;19.95;11.07;;;;;;;9.42;60.98;98501.31;4448322;32;20168;-73
2024/01/04 07:35:19;;;;;;;13.80;7.30;;;;;;;9.45;60.92;98501.88;4452096;32;20191;-73
2024/01/04 07:37:48;;;;;;;14.87;8.55;;;;;;;9.41;61.01;98497.84;4450849;32;20148;-73
2024/01/04 07:40:18;;;;;;;8.20;5.10;;;;;;;9.46;60.96;98502.72;4450044;32;20156;-73
2024/01/04 07:42:47;;;;;;;6.30;4.05;;;;;;;9.36;60.92;98502.69;4448172;32;20863;-72
2024/01/04 07:45:17;;;;;;;5.68;3.80;;;;;;;9.60;59.77;98497.06;4452558;32;20398;-73
2024/01/04 07:47:48;;;;;;;5.30;3.87;;;;;;;9.69;59.32;98501.56;4451976;32;20179;-73
2024/01/04 07:50:20;;;;;;;6.15;3.55;;;;;;;9.97;58.54;98502.59;4449572;32;20172;-73
2024/01/04 07:52:50;;;;;;;8.95;3.28;;;;;;;9.99;58.50;98502.47;4448622;32;20179;-73
2024/01/04 07:55:22;;;;;;;3.83;2.60;;;;;;;10.44;57.24;98501.97;4450676;32;20175;-73
2024/01/04 07:57:52;;;;;;;4.40;2.22;;;;;;;11.04;55.49;98494.63;4451985;32;20163;-73
2024/01/04 08:00:29;;;;;;;5.68;2.55;;;;;;;12.01;53.22;98483.63;4449912;32;20183;-73
2024/01/04 08:03:00;;;;;;;4.95;2.50;;;;;;;12.76;51.09;98481.50;4448618;32;20167;-73
2024/01/04 08:05:29;;;;;;;3.85;2.22;;;;;;;13.80;49.02;98483.25;4451197;32;20429;-73
2024/01/04 08:07:58;;;;;;;6.72;2.90;;;;;;;14.64;46.72;98472.41;4451118;32;20144;-73
2024/01/04 08:10:28;;;;;;;7.15;3.15;;;;;;;15.60;43.84;98479.59;4449693;32;20179;-73
2024/01/04 08:12:57;;;;;;;3.85;3.08;;;;;;;16.79;41.37;98466.84;4451096;32;20196;-73
2024/01/04 08:15:29;;;;;;;6.28;2.97;;;;;;;17.77;40.06;98461.28;4451127;32;20179;-73
2024/01/04 08:17:58;;;;;;;6.50;3.20;;;;;;;18.64;38.18;98463.84;4451423;32;20152;-73
2024/01/04 08:20:30;;;;;;;3.62;2.28;;;;;;;19.44;36.54;98464.50;4447281;32;20176;-73
2024/01/04 08:23:00;;;;;;;5.80;2.60;;;;;;;19.85;35.19;98464.50;4448320;32;20186;-73
2024/01/04 08:25:30;;;;;;;5.10;3.12;;;;;;;20.24;34.14;98468.37;4450974;32;20543;-73
2024/01/04 08:27:59;;;;;;;5.07;2.97;;;;;;;20.17;33.60;98459.44;4450896;32;20139;-73
2024/01/04 08:30:29;;;;;;;4.68;2.85;;;;;;;20.47;33.62;98459.94;4447759;32;20176;-73
2024/01/04 08:32:59;;;;;;;5.75;3.28;;;;;;;20.76;33.06;98468.69;4448754;32;20714;-73
2024/01/04 08:35:29;;;;;;;4.05;2.70;;;;;;;20.20;33.26;98468.97;4450998;32;20160;-73
2024/01/04 08:37:58;;;;;;;4.18;2.60;;;;;;;20.10;33.26;98472.88;4450840;32;20183;-73
2024/01/04 08:40:28;;;;;;;4.53;2.33;;;;;;;19.83;33.47;98476.47;4447781;32;20575;-73
2024/01/04 08:42:57;;;;;;;6.43;2.65;;;;;;;18.51;34.85;98471.78;4448058;32;20184;-73
2024/01/04 08:45:27;;;;;;;4.28;2.65;;;;;;;17.25;37.66;98480.12;4450442;32;20722;-72
2024/01/04 08:48:00;;;;;;;6.40;2.40;;;;;;;16.57;39.42;98477.37;4451121;32;20151;-74
2024/01/04 08:50:30;;;;;;;4.62;2.10;;;;;;;16.02;40.41;98482.91;4447309;32;20187;-73
2024/01/04 08:52:59;;;;;;;3.58;2.55;;;;;;;15.48;41.62;98494.28;4448045;32;20148;-73
2024/01/04 08:55:28;;;;;;;4.15;2.37;;;;;;;15.11;42.00;98490.38;4450677;32;20171;-73
2024/01/04 08:57:58;;;;;;;4.62;3.00;;;;;;;13.93;44.54;98505.75;4450532;32;20175;-73
2024/01/04 09:00:28;;;;;;;3.95;2.22;;;;;;;13.91;45.05;98499.75;4438507;32;290600;-73
2024/01/04 09:03:04;;;;;;;3.55;1.80;;;;;;;13.75;45.39;98510.34;4449330;32;20144;-73
2024/01/04 09:05:34;;;;;;;3.30;2.00;;;;;;;14.06;45.01;98507.97;4451413;32;20167;-73
2024/01/04 09:08:05;;;;;;;3.50;2.15;;;;;;;14.41;44.40;98506.03;4451532;32;20438;-73
2024/01/04 09:10:34;;;;;;;2.17;1.60;;;;;;;14.31;43.77;98516.00;4447681;32;20172;-73
2024/01/04 09:13:04;;;;;;;2.95;1.52;;;;;;;14.37;43.54;98512.69;4449201;32;20156;-73
2024/01/04 09:15:33;;;;;;;2.67;1.50;;;;;;;13.80;43.76;98518.69;4451412;32;20155;-72
2024/01/04 09:18:08;;;;;;;3.97;1.60;;;;;;;13.80;43.59;98512.53;4451916;32;20164;-73
2024/01/04 09:20:37;;;;;;;3.25;1.80;;;;;;;13.65;44.33;98513.13;4447316;32;20159;-73
2024/01/04 09:23:07;;;;;;;2.67;1.50;;;;;;;13.57;44.35;98513.09;4449557;32;20275;-73
2024/01/04 09:25:37;;;;;;;3.62;1.90;;;;;;;13.40;44.66;98517.50;4451371;32;20155;-73
2024/01/04 09:28:06;;;;;;;2.72;2.00;;;;;;;13.43;44.52;98511.03;4451397;32;20168;-73
2024/01/04 09:30:35;;;;;;;4.10;1.50;;;;;;;13.40;43.69;98506.84;4447091;32;20152;-73
2024/01/04 09:33:11;;;;;;;2.08;1.50;;;;;;;13.45;44.06;98501.88;4449512;32;20145;-73
2024/01/04 09:35:41;;;;;;;2.37;1.33;;;;;;;14.20;42.99;98506.50;4451649;32;20172;-73
2024/01/04 09:38:10;;;;;;;2.37;2.00;;;;;;;14.27;42.43;98507.50;4451267;32;20163;-73
2024/01/04 09:40:39;;;;;;;5.22;2.40;;;;;;;14.38;42.54;98503.72;4447037;32;20159;-73
2024/01/04 09:43:10;;;;;;;5.32;2.12;;;;;;;14.40;42.16;98499.87;4449849;32;20453;-73
2024/01/04 09:45:39;;;;;;;2.33;1.77;;;;;;;14.37;41.68;98499.34;4451247;32;20536;-73
2024/01/04 09:48:19;;;;;;;2.90;1.70;;;;;;;14.23;41.95;98499.00;4451632;32;20191;-73
2024/01/04 09:50:59;;;;;;;1.90;1.50;;;;;;;13.91;42.21;98499.75;4444776;32;20191;-73
2024/01/04 09:53:28;;;;;;;2.37;1.55;;;;;;;14.02;42.21;98498.63;4451384;32;20183;-73
2024/01/04 09:56:00;;;;;;;6.62;2.12;;;;;;;14.18;42.37;98497.84;4451220;32;20180;-73
2024/01/04 09:58:30;;;;;;;3.50;2.03;;;;;;;14.36;41.65;98493.19;4451031;32;20172;-73
2024/01/04 10:01:02;;;;;;;2.70;1.70;;;;;;;14.13;42.00;98502.81;4444724;32;20179;-73
2024/01/04 10:03:34;;;;;;;3.08;1.77;;;;;;;14.20;41.71;98506.50;4451344;32;20175;-73
2024/01/04 10:06:08;;;;;;;1.15;1.08;;;;;;;14.21;41.64;98511.69;4451457;32;20564;-73
2024/01/04 10:08:42;;;;;;;3.58;1.92;;;;;;;14.30;41.67;98517.84;4450989;32;20171;-73
2024/01/04 10:11:16;;;;;;;3.67;2.00;;;;;;;14.62;41.52;98511.75;4444665;32;20547;-73
2024/01/04 10:13:46;;;;;;;1.65;1.40;;;;;;;15.17;40.24;98521.72;4451005;32;20151;-73
2024/01/04 10:16:16;;;;;;;2.08;1.52;;;;;;;16.03;38.62;98519.31;4450943;32;20517;-73
2024/01/04 10:18:49;;;;;;;1.30;1.20;;;;;;;16.01;38.21;98521.34;4451271;32;20468;-73
2024/01/04 10:21:18;;;;;;;2.08;1.40;;;;;;;16.30;36.91;98521.50;4449892;32;20896;-73
2024/01/04 10:23:57;;;;;;;1.80;1.35;;;;;;;15.94;37.43;98534.53;4451090;32;20190;-73
2024/01/04 10:26:29;;;;;;;1.80;1.20;;;;;;;15.81;37.82;98521.75;4450875;32;20180;-73
2024/01/04 10:29:00;;;;;;;1.40;1.30;;;;;;;15.47;38.49;98533.50;4450930;32;20199;-73
2024/01/04 10:31:29;;;;;;;1.42;1.30;;;;;;;15.19;38.79;98527.72;4444475;32;20195;-73
2024/01/04 10:34:00;;;;;;;2.75;1.40;;;;;;;14.82;39.88;98538.91;4450745;32;20180;-73
2024/01/04 10:36:32;;;;;;;2.03;1.45;;;;;;;14.73;39.58;98530.09;4450781;32;20516;-73
2024/01/04 10:39:09;;;;;;;1.52;1.10;;;;;;;14.22;40.79;98531.16;4451121;32;20168;-73
2024/01/04 10:41:40;;;;;;;1.87;1.40;;;;;;;14.25;41.16;98538.78;4444602;32;20211;-73
2024/01/04 10:44:17;;;;;;;2.90;1.70;;;;;;;13.87;41.80;98530.37;4450601;32;20191;-73
2024/01/04 10:46:46;;;;;;;1.50;1.35;;;;;;;13.69;42.26;98534.94;4450671;32;20183;-73
2024/01/04 10:49:17;;;;;;;1.80;1.50;;;;;;;13.72;42.10;98532.78;4450820;32;20152;-73
2024/01/04 10:51:52;;;;;;;5.20;2.47;;;;;;;13.47;42.82;98528.34;4444491;32;20183;-73
2024/01/04 10:54:21;;;;;;;2.60;1.98;;;;;;;13.71;43.01;98530.31;4450904;32;20152;-73
2024/01/04 10:56:58;;;;;;;3.55;1.50;;;;;;;13.52;42.58;98518.91;4450231;32;20428;-73
2024/01/04 10:59:29;;;;;;;7.30;4.47;;;;;;;13.67;43.30;98527.12;4450531;32;20156;-73
2024/01/04 11:02:00;;;;;;;5.53;3.03;;;;;;;13.78;43.07;98520.69;4444136;32;20455;-73
2024/01/04 11:04:31;;;;;;;3.28;2.03;;;;;;;13.93;42.69;98511.06;4450545;32;20585;-73
2024/01/04 11:07:01;;;;;;;5.40;1.90;;;;;;;14.19;42.15;98502.16;4450328;32;20147;-73
2024/01/04 11:09:34;;;;;;;4.53;2.87;;;;;;;14.26;41.42;98504.03;4450245;32;20172;-72
2024/01/04 11:12:06;;;;;;;4.40;1.87;;;;;;;14.55;41.38;98502.75;4444554;32;20171;-73
2024/01/04 11:14:35;;;;;;;3.87;2.28;;;;;;;14.55;41.18;98501.91;4450342;32;20163;-73
2024/01/04 11:17:18;;;;;;;4.70;1.80;;;;;;;14.59;41.32;98505.91;4450442;32;20155;-73
2024/01/04 11:20:08;;;;;;;1.40;1.25;;;;;;;14.84;41.15;98501.41;4450350;32;20504;-73
2024/01/04 11:22:59;;;;;;;1.50;1.37;;;;;;;14.57;40.96;98497.25;4450280;32;20168;-73
2024/01/04 11:25:44;;;;;;;2.12;1.60;;;;;;;14.50;41.11;98505.09;4450014;32;20199;-73
2024/01/04 11:28:19;;;;;;;2.20;1.40;;;;;;;14.56;41.12;98507.06;4450165;32;20171;-73
2024/01/04 11:31:05;;;;;;;1.65;1.50;;;;;;;14.42;41.18;98515.72;4443681;32;20148;-73
2024/01/04 11:33:38;;;;;;;1.73;1.37;;;;;;;14.35;41.84;98518.19;4450082;32;20159;-73
2024/01/04 11:36:10;;;;;;;2.97;1.67;;;;;;;14.02;41.87;98515.44;4450430;32;20152;-73
2024/01/04 11:38:46;;;;;;;2.08;1.42;;;;;;;14.43;42.16;98512.03;4450075;32;20513;-73
2024/01/04 11:41:15;;;;;;;1.62;1.42;;;;;;;14.16;42.27;98513.97;4443521;32;20156;-73
2024/01/04 11:43:44;;;;;;;2.05;1.15;;;;;;;14.34;42.13;98521.03;4449969;32;20171;-73
2024/01/04 11:46:20;;;;;;;3.17;1.50;;;;;;;14.60;41.63;98505.75;4449813;32;20159;-73
2024/01/04 11:48:54;;;;;;;3.12;1.77;;;;;;;14.61;41.94;98511.91;4449939;32;20433;-73
2024/01/04 11:51:35;;;;;;;2.10;1.25;;;;;;;14.34;41.74;98519.19;4443527;32;20164;-71
2024/01/04 11:54:06;;;;;;;1.67;1.25;;;;;;;14.38;42.18;98520.53;4450248;32;20183;-73